Time;durP1;ratioP1;P1;durP2;ratioP2;P2;SDS_P1;SDS_P2;PMS_P1;PMS_P2;Temp;Humidity;BMP_temperature;BMP_pressure;BME280_temperature;BME280_humidity;BME280_pressure;Samples;Min_cycle;Max_cycle;Signal;HPM_P1;HPM_P2
2021/03/12 00:02:09;;;;;;;1.60;0.60;;;;;;;3.44;88.24;95486.00;4901970;29;20139;-77
2021/03/12 00:04:35;;;;;;;0.73;0.27;;;;;;;3.40;88.71;95495.03;4901665;29;20944;-77
2021/03/12 00:07:00;;;;;;;2.50;0.30;;;;;;;3.40;88.81;95491.63;4924448;29;20608;-77
2021/03/12 00:09:26;;;;;;;3.93;0.40;;;;;;;3.34;88.62;95487.75;4900546;29;20032;-77
2021/03/12 00:11:52;;;;;;;0.60;0.30;;;;;;;3.34;88.63;95482.56;4902679;29;20107;-77
2021/03/12 00:14:19;;;;;;;3.37;0.40;;;;;;;3.33;88.26;95483.53;4920204;29;20043;-77
2021/03/12 00:16:44;;;;;;;1.00;0.40;;;;;;;3.39;88.10;95483.00;4905897;29;20460;-77
2021/03/12 00:19:11;;;;;;;1.13;0.30;;;;;;;3.37;88.04;95486.69;4911113;29;20479;-77
2021/03/12 00:21:36;;;;;;;3.40;0.53;;;;;;;3.32;88.51;95484.50;4929028;29;20039;-77
2021/03/12 00:24:02;;;;;;;2.93;0.73;;;;;;;3.31;88.61;95477.63;4926011;29;20472;-77
2021/03/12 00:26:28;;;;;;;1.63;0.30;;;;;;;3.32;88.46;95492.28;4887332;29;20028;-77
2021/03/12 00:28:54;;;;;;;2.00;0.80;;;;;;;3.36;88.07;95472.06;4905149;29;20028;-77
2021/03/12 00:31:19;;;;;;;0.53;0.20;;;;;;;3.34;87.53;95468.75;4907211;29;20386;-77
2021/03/12 00:33:45;;;;;;;1.53;0.50;;;;;;;3.29;87.99;95487.34;4906225;29;20389;-76
2021/03/12 00:36:12;;;;;;;1.50;0.53;;;;;;;3.34;88.07;95498.16;4923641;29;20086;-77
2021/03/12 00:38:38;;;;;;;1.93;0.37;;;;;;;3.39;87.68;95495.19;4894322;29;20050;-77
2021/03/12 00:41:08;;;;;;;1.73;0.40;;;;;;;3.45;87.84;95495.44;4909759;29;20918;-77
2021/03/12 00:43:41;;;;;;;2.00;0.50;;;;;;;3.53;87.28;95507.78;4918213;29;20483;-77
2021/03/12 00:46:23;;;;;;;2.73;0.93;;;;;;;3.59;86.71;95501.22;4916665;29;20482;-77
2021/03/12 00:48:48;;;;;;;1.67;0.37;;;;;;;3.65;87.23;95508.47;4887874;29;20464;-77
2021/03/12 00:51:14;;;;;;;0.87;0.30;;;;;;;3.67;86.62;95510.00;4913677;29;20031;-77
2021/03/12 00:53:58;;;;;;;2.30;0.37;;;;;;;3.69;86.77;95502.03;4902036;29;20489;-77
2021/03/12 00:56:26;;;;;;;3.37;0.90;;;;;;;3.73;87.44;95500.84;4890589;29;20638;-78
2021/03/12 00:58:52;;;;;;;1.37;0.57;;;;;;;3.77;86.92;95504.81;4912541;29;20570;-77
2021/03/12 01:01:19;;;;;;;3.90;0.50;;;;;;;3.77;87.36;95516.03;4910721;29;21082;-77
2021/03/12 01:03:45;;;;;;;2.53;0.43;;;;;;;3.80;87.03;95512.34;4924546;29;20516;-77
2021/03/12 01:06:13;;;;;;;1.73;0.33;;;;;;;3.89;86.39;95506.34;4917042;29;20405;-77
2021/03/12 01:08:51;;;;;;;2.97;0.67;;;;;;;3.95;86.12;95515.34;4905498;29;20439;-77
2021/03/12 01:11:21;;;;;;;1.57;0.60;;;;;;;3.98;85.96;95517.69;4894375;29;20606;-77
2021/03/12 01:13:47;;;;;;;2.03;0.50;;;;;;;3.99;86.46;95522.78;4911806;29;20550;-77
2021/03/12 01:16:13;;;;;;;6.27;0.70;;;;;;;4.00;85.79;95521.81;4899087;29;20094;-77
2021/03/12 01:18:39;;;;;;;2.03;0.40;;;;;;;4.04;85.57;95508.53;4912232;29;20040;-77
2021/03/12 01:21:14;;;;;;;3.07;0.60;;;;;;;4.08;85.33;95510.69;4898711;29;20438;-77
2021/03/12 01:23:40;;;;;;;4.07;0.40;;;;;;;4.13;85.70;95521.53;4896807;29;20525;-77
2021/03/12 01:26:05;;;;;;;2.20;0.37;;;;;;;4.13;85.50;95523.31;4904967;29;20441;-77
2021/03/12 01:28:41;;;;;;;2.00;0.67;;;;;;;4.11;85.54;95515.63;4901099;29;20060;-77
2021/03/12 01:31:07;;;;;;;4.50;2.00;;;;;;;4.08;85.46;95513.31;4917593;29;20725;-77
2021/03/12 01:33:42;;;;;;;3.93;0.57;;;;;;;4.06;84.67;95510.03;4899084;29;20028;-77
2021/03/12 01:36:09;;;;;;;3.10;0.70;;;;;;;4.06;84.51;95519.59;4910250;29;20043;-77
2021/03/12 01:38:46;;;;;;;3.83;0.63;;;;;;;4.05;84.11;95531.78;4901821;29;20455;-77
2021/03/12 01:41:13;;;;;;;4.63;0.80;;;;;;;4.01;84.25;95526.03;4912991;29;20467;-77
2021/03/12 01:43:43;;;;;;;2.37;0.47;;;;;;;4.04;83.59;95540.56;4898462;29;20123;-76
2021/03/12 01:46:10;;;;;;;1.77;0.50;;;;;;;4.12;82.71;95543.28;4915613;29;20466;-77
2021/03/12 01:48:36;;;;;;;6.33;1.90;;;;;;;4.15;82.12;95552.59;4926369;29;20468;-77
2021/03/12 01:51:04;;;;;;;0.90;0.30;;;;;;;4.14;82.09;95561.38;4905595;29;20046;-77
2021/03/12 01:53:33;;;;;;;2.97;0.50;;;;;;;4.12;82.33;95563.28;4913522;29;20123;-77
2021/03/12 01:56:01;;;;;;;4.13;0.70;;;;;;;4.15;82.31;95573.44;4908197;29;20475;-77
2021/03/12 01:58:36;;;;;;;4.53;1.60;;;;;;;4.21;82.41;95586.72;4916946;29;20452;-77
2021/03/12 02:01:06;;;;;;;2.63;0.47;;;;;;;3.90;82.45;95583.41;4884317;29;20040;-77
2021/03/12 02:03:42;;;;;;;3.23;0.50;;;;;;;3.72;83.77;95598.00;4917948;29;20448;-77
2021/03/12 02:06:14;;;;;;;2.87;0.63;;;;;;;3.61;83.84;95600.69;4905946;29;20095;-77
2021/03/12 02:08:42;;;;;;;0.97;0.27;;;;;;;3.52;84.17;95603.16;4897373;29;20490;-77
2021/03/12 02:11:33;;;;;;;1.47;0.37;;;;;;;3.46;84.31;95603.66;4896241;29;20455;-77
2021/03/12 02:14:11;;;;;;;4.00;1.67;;;;;;;3.36;85.38;95602.00;4900321;29;21237;-77
2021/03/12 02:16:48;;;;;;;2.70;0.60;;;;;;;3.50;83.74;95599.03;4900509;29;20471;-77
2021/03/12 02:19:45;;;;;;;1.20;0.40;;;;;;;3.43;82.87;95601.34;4915020;29;20482;-77
2021/03/12 02:22:13;;;;;;;3.97;0.53;;;;;;;3.52;81.55;95605.75;4898726;29;20515;-77
2021/03/12 02:24:40;;;;;;;3.17;0.60;;;;;;;3.60;80.38;95607.69;4923781;29;20845;-77
2021/03/12 02:27:15;;;;;;;2.10;0.70;;;;;;;3.64;80.78;95616.03;4898628;29;20479;-77
2021/03/12 02:29:56;;;;;;;1.93;1.00;;;;;;;3.60;80.92;95619.88;4927895;29;20527;-78
2021/03/12 02:32:37;;;;;;;3.17;0.97;;;;;;;3.58;81.54;95621.75;4897433;29;20622;-77
2021/03/12 02:35:09;;;;;;;4.20;0.68;;;;;;;3.67;81.14;95626.19;4900848;29;20493;-77
2021/03/12 02:37:36;;;;;;;3.77;0.50;;;;;;;3.74;79.94;95629.91;4898232;29;20039;-77
2021/03/12 02:40:05;;;;;;;2.80;0.57;;;;;;;3.59;80.57;95639.00;4925595;29;20588;-77
2021/03/12 02:42:42;;;;;;;2.47;0.27;;;;;;;3.42;81.47;95637.84;4905109;29;20483;-77
2021/03/12 02:45:10;;;;;;;4.20;0.80;;;;;;;3.31;82.56;95636.97;4902524;29;20499;-77
2021/03/12 02:47:40;;;;;;;4.33;0.87;;;;;;;3.00;83.40;95641.31;4914156;29;21016;-77
2021/03/12 02:50:13;;;;;;;3.93;1.30;;;;;;;3.21;79.98;95643.06;4928490;29;20518;-77
2021/03/12 02:52:41;;;;;;;5.17;0.70;;;;;;;3.26;79.12;95635.72;4899872;29;20470;-77
2021/03/12 02:55:10;;;;;;;9.57;1.53;;;;;;;3.31;77.84;95641.34;4894843;29;20854;-77
2021/03/12 02:57:58;;;;;;;1.73;0.67;;;;;;;3.32;78.06;95653.41;4915392;29;20467;-77
2021/03/12 03:00:25;;;;;;;7.23;0.90;;;;;;;3.31;77.80;95636.16;4899809;29;21060;-77
2021/03/12 03:03:23;;;;;;;5.73;0.73;;;;;;;3.41;76.75;95628.41;4919010;29;20586;-77
2021/03/12 03:06:27;;;;;;;3.87;1.10;;;;;;;3.33;77.09;95636.84;4891923;29;20461;-77
2021/03/12 03:08:54;;;;;;;2.53;0.57;;;;;;;3.46;75.97;95624.47;4882933;29;20484;-77
2021/03/12 03:11:21;;;;;;;8.17;1.93;;;;;;;3.49;76.03;95628.59;4895818;29;20455;-79
2021/03/12 03:13:50;;;;;;;7.73;1.23;;;;;;;3.40;76.46;95629.38;4899501;29;20447;-77
2021/03/12 03:16:21;;;;;;;3.20;0.70;;;;;;;3.42;76.63;95624.84;4893092;29;20503;-77
2021/03/12 03:18:47;;;;;;;4.30;0.63;;;;;;;3.49;75.48;95619.00;4927054;29;20956;-76
2021/03/12 03:21:15;;;;;;;3.23;0.77;;;;;;;3.45;76.09;95612.41;4927430;29;20610;-77
2021/03/12 03:23:43;;;;;;;5.47;0.97;;;;;;;3.41;76.38;95621.41;4922438;29;20036;-77
2021/03/12 03:26:10;;;;;;;3.73;0.90;;;;;;;3.40;76.39;95624.16;4891004;29;20523;-77
2021/03/12 03:28:39;;;;;;;5.47;0.90;;;;;;;3.40;76.79;95629.38;4896420;29;20502;-77
2021/03/12 03:31:06;;;;;;;4.67;0.80;;;;;;;3.36;77.05;95622.78;4907566;29;20587;-77
2021/03/12 03:33:33;;;;;;;3.60;0.77;;;;;;;3.37;77.74;95624.41;4920877;29;20535;-77
2021/03/12 03:36:02;;;;;;;1.63;0.57;;;;;;;3.31;77.61;95623.97;4918568;29;20523;-77
2021/03/12 03:38:29;;;;;;;4.40;0.93;;;;;;;3.21;78.32;95640.47;4907779;29;20467;-77
2021/03/12 03:40:57;;;;;;;5.43;0.93;;;;;;;3.24;78.34;95627.22;4913619;29;20992;-77
2021/03/12 03:43:31;;;;;;;7.50;1.10;;;;;;;3.28;78.06;95637.22;4928470;29;20487;-77
2021/03/12 03:46:03;;;;;;;3.42;0.80;;;;;;;3.30;78.39;95639.72;4922579;29;20491;-77
2021/03/12 03:48:38;;;;;;;4.07;0.70;;;;;;;3.28;78.12;95652.00;4897969;29;20036;-77
2021/03/12 03:51:09;;;;;;;5.33;0.93;;;;;;;3.33;78.38;95649.84;4912644;29;20468;-77
2021/03/12 03:53:38;;;;;;;3.30;0.93;;;;;;;3.37;77.67;95653.00;4907130;29;21071;-77
2021/03/12 03:56:06;;;;;;;5.43;1.10;;;;;;;3.46;77.14;95640.06;4892072;29;20817;-77
2021/03/12 03:58:37;;;;;;;4.67;1.10;;;;;;;3.58;75.25;95645.97;4921177;29;21073;-77
2021/03/12 04:01:06;;;;;;;7.37;0.93;;;;;;;3.50;76.74;95646.63;4928601;29;20474;-77
2021/03/12 04:03:33;;;;;;;3.80;0.90;;;;;;;3.50;76.11;95651.03;4924372;29;20486;-77
2021/03/12 04:06:04;;;;;;;3.60;0.70;;;;;;;3.52;75.47;95647.34;4920956;29;20479;-77
2021/03/12 04:08:32;;;;;;;3.60;0.63;;;;;;;3.59;74.90;95649.41;4905765;29;20475;-77
2021/03/12 04:10:59;;;;;;;3.27;0.60;;;;;;;3.64;74.23;95648.06;4906114;29;20459;-77
2021/03/12 04:13:28;;;;;;;3.83;0.63;;;;;;;3.55;74.85;95654.03;4879831;29;20834;-77
2021/03/12 04:15:54;;;;;;;5.17;0.83;;;;;;;3.56;75.44;95662.69;4899451;29;20483;-77
2021/03/12 04:18:21;;;;;;;5.60;0.90;;;;;;;3.52;75.94;95672.50;4895668;29;20478;-77
2021/03/12 04:20:48;;;;;;;4.90;1.00;;;;;;;3.49;76.96;95665.81;4895093;29;20452;-77
2021/03/12 04:23:16;;;;;;;6.77;0.67;;;;;;;3.50;77.16;95664.84;4886429;29;20499;-77
2021/03/12 04:25:43;;;;;;;4.47;0.80;;;;;;;3.50;77.59;95671.81;4909785;29;20522;-77
2021/03/12 04:28:11;;;;;;;4.37;0.70;;;;;;;3.46;77.75;95675.63;4907321;29;20471;-77
2021/03/12 04:30:37;;;;;;;5.60;0.77;;;;;;;3.45;77.85;95674.78;4889981;29;20555;-77
2021/03/12 04:33:03;;;;;;;3.43;0.80;;;;;;;3.38;78.69;95678.84;4913428;29;21297;-77
2021/03/12 04:35:33;;;;;;;4.30;0.80;;;;;;;3.39;78.54;95696.13;4895964;29;20035;-77
2021/03/12 04:38:02;;;;;;;4.60;0.60;;;;;;;3.39;78.49;95701.31;4902501;29;20503;-77
2021/03/12 04:40:28;;;;;;;4.67;0.80;;;;;;;3.33;78.54;95707.03;4889625;29;21005;-77
2021/03/12 04:42:54;;;;;;;4.67;0.80;;;;;;;3.34;77.96;95719.06;4904990;29;20531;-77
2021/03/12 04:45:22;;;;;;;3.93;0.60;;;;;;;3.36;77.66;95717.16;4926116;29;20813;-77
2021/03/12 04:47:52;;;;;;;5.40;0.77;;;;;;;3.45;76.00;95725.94;4907536;29;21084;-77
2021/03/12 04:50:19;;;;;;;2.03;0.40;;;;;;;3.47;74.92;95724.88;4898778;29;21015;-77
2021/03/12 04:52:47;;;;;;;5.30;2.27;;;;;;;3.51;74.31;95733.25;4901925;29;20444;-77
2021/03/12 04:55:18;;;;;;;5.53;2.33;;;;;;;3.56;72.25;95736.31;4892123;29;20606;-77
2021/03/12 04:57:48;;;;;;;3.50;0.80;;;;;;;3.65;70.66;95735.50;4920247;29;21243;-77
2021/03/12 05:00:15;;;;;;;7.77;1.10;;;;;;;3.59;71.37;95738.66;4896335;29;20463;-77
2021/03/12 05:02:53;;;;;;;3.60;0.60;;;;;;;3.57;71.74;95756.13;4906140;29;20471;-77
2021/03/12 05:05:20;;;;;;;6.53;1.20;;;;;;;3.57;70.42;95765.72;4890397;29;20452;-77
2021/03/12 05:07:46;;;;;;;6.73;0.63;;;;;;;3.46;71.43;95775.22;4879846;29;20456;-78
2021/03/12 05:10:52;;;;;;;3.97;0.70;;;;;;;3.45;70.87;95770.97;4913631;29;20456;-77
2021/03/12 05:13:18;;;;;;;4.67;0.70;;;;;;;3.46;72.08;95775.22;4902938;29;20479;-77
2021/03/12 05:15:45;;;;;;;4.27;0.70;;;;;;;3.41;71.64;95771.34;4910292;29;20483;-77
2021/03/12 05:18:11;;;;;;;3.30;0.80;;;;;;;3.45;71.24;95776.16;4904844;29;20471;-77
2021/03/12 05:20:40;;;;;;;5.67;0.87;;;;;;;3.43;71.24;95778.09;4895324;29;20562;-77
2021/03/12 05:23:06;;;;;;;2.97;0.60;;;;;;;3.50;70.52;95788.81;4929537;29;20543;-77
2021/03/12 05:25:32;;;;;;;3.23;1.37;;;;;;;3.46;71.17;95793.44;4919933;29;20028;-77
2021/03/12 05:27:58;;;;;;;4.17;0.73;;;;;;;3.40;71.41;95796.53;4928770;29;20472;-77
2021/03/12 05:30:25;;;;;;;6.80;1.70;;;;;;;3.39;71.13;95797.50;4913720;29;20031;-77
2021/03/12 05:32:53;;;;;;;8.73;1.23;;;;;;;3.42;70.94;95802.44;4896524;29;20463;-77
2021/03/12 05:35:19;;;;;;;7.00;2.83;;;;;;;3.44;69.93;95800.53;4886522;29;21076;-77
2021/03/12 05:37:46;;;;;;;3.00;0.77;;;;;;;3.58;66.90;95793.34;4915788;29;20089;-78
2021/03/12 05:40:13;;;;;;;5.93;1.17;;;;;;;3.48;68.94;95804.50;4912418;29;20592;-77
2021/03/12 05:42:44;;;;;;;3.70;0.90;;;;;;;3.45;68.49;95809.13;4925373;29;20463;-77
2021/03/12 05:45:12;;;;;;;7.70;1.10;;;;;;;3.51;67.14;95814.66;4925546;29;20498;-77
2021/03/12 05:47:48;;;;;;;8.00;1.20;;;;;;;3.48;66.81;95809.72;4910963;29;21169;-77
2021/03/12 05:50:15;;;;;;;3.30;0.73;;;;;;;3.51;66.74;95812.06;4903218;29;20471;-77
2021/03/12 05:52:41;;;;;;;5.17;0.90;;;;;;;3.45;67.23;95814.34;4918115;29;20555;-77
2021/03/12 05:55:08;;;;;;;7.63;1.30;;;;;;;3.48;67.48;95812.31;4889656;29;20464;-77
2021/03/12 05:57:35;;;;;;;7.43;2.47;;;;;;;3.51;67.00;95825.06;4897493;29;21097;-77
2021/03/12 06:00:05;;;;;;;5.90;1.87;;;;;;;3.52;67.63;95821.53;4916046;29;20519;-77
2021/03/12 06:02:43;;;;;;;5.00;0.80;;;;;;;3.49;66.51;95821.78;4922593;29;20508;-77
2021/03/12 06:05:12;;;;;;;4.03;0.70;;;;;;;3.40;67.19;95811.31;4897021;29;21255;-77
2021/03/12 06:07:39;;;;;;;2.60;0.87;;;;;;;3.42;67.80;95820.63;4897660;29;20467;-77
2021/03/12 06:10:07;;;;;;;4.37;0.80;;;;;;;3.42;68.52;95828.44;4915875;29;20052;-76
2021/03/12 06:12:33;;;;;;;5.53;1.50;;;;;;;3.43;66.89;95832.66;4908275;29;20456;-78
2021/03/12 06:15:03;;;;;;;5.13;1.00;;;;;;;3.49;66.46;95826.97;4900515;29;20538;-76
2021/03/12 06:17:39;;;;;;;7.67;1.10;;;;;;;3.82;65.41;95829.50;4899192;29;20475;-77
2021/03/12 06:20:09;;;;;;;5.20;1.50;;;;;;;3.75;65.66;95834.38;4906480;29;20472;-77
2021/03/12 06:22:51;;;;;;;5.57;1.00;;;;;;;3.64;66.19;95835.28;4900742;29;20483;-77
2021/03/12 06:25:25;;;;;;;4.87;1.07;;;;;;;3.66;66.80;95832.56;4913320;29;20493;-76
2021/03/12 06:28:13;;;;;;;;;;;;;;;3.60;66.31;95838.25;4899426;29;20483;-77
2021/03/12 06:30:58;;;;;;;9.60;2.77;;;;;;;3.63;65.82;95841.44;4916157;29;19915;-77
2021/03/12 06:33:42;;;;;;;6.27;1.60;;;;;;;3.56;67.18;95842.06;4927397;29;20604;-77
2021/03/12 06:36:29;;;;;;;5.93;1.30;;;;;;;3.56;66.74;95853.28;4913535;29;20825;-77
2021/03/12 06:39:15;;;;;;;9.43;1.30;;;;;;;3.57;67.77;95854.94;4909727;29;20467;-76
2021/03/12 06:41:47;;;;;;;7.93;1.40;;;;;;;3.59;67.00;95860.00;4901471;29;20483;-76
2021/03/12 06:44:28;;;;;;;5.57;1.30;;;;;;;3.67;67.12;95850.63;4913213;29;20476;-76
2021/03/12 06:46:57;;;;;;;8.80;1.40;;;;;;;3.63;66.38;95853.63;4916367;29;20483;-76
2021/03/12 06:49:23;;;;;;;5.87;1.37;;;;;;;3.73;66.46;95854.50;4912736;29;20483;-76
2021/03/12 06:52:10;;;;;;;4.70;1.10;;;;;;;4.04;65.37;95862.38;4904443;29;20877;-77
2021/03/12 06:54:52;;;;;;;3.73;0.90;;;;;;;3.97;66.43;95868.06;4897157;29;20472;-76
2021/03/12 06:57:22;;;;;;;6.00;1.20;;;;;;;4.11;65.47;95869.53;4921024;29;20483;-77
2021/03/12 07:00:07;;;;;;;5.77;1.80;;;;;;;4.11;65.86;95861.72;4912787;29;20900;-76
2021/03/12 07:02:38;;;;;;;9.20;1.63;;;;;;;5.01;63.16;95858.38;4906056;29;20028;-76
2021/03/12 07:05:10;;;;;;;5.77;1.20;;;;;;;5.77;61.18;95863.78;4896861;29;20040;-77
2021/03/12 07:07:41;;;;;;;3.27;0.60;;;;;;;6.18;59.37;95853.16;4930004;29;20047;-77
2021/03/12 07:10:34;;;;;;;6.40;1.40;;;;;;;5.61;60.47;95855.69;4905198;29;20035;-76
2021/03/12 07:13:19;;;;;;;8.40;1.77;;;;;;;5.62;62.20;95863.34;4906611;29;20032;-76
2021/03/12 07:15:52;;;;;;;5.07;1.10;;;;;;;5.98;60.82;95865.44;4895318;29;20027;-76
2021/03/12 07:18:27;;;;;;;7.10;1.10;;;;;;;6.22;60.31;95870.19;4888943;29;20430;-76
2021/03/12 07:20:59;;;;;;;7.87;1.93;;;;;;;6.14;60.14;95878.72;4900130;29;20449;-76
2021/03/12 07:23:29;;;;;;;5.90;1.10;;;;;;;6.76;58.37;95881.69;4903100;29;20036;-76
2021/03/12 07:25:58;;;;;;;5.27;1.73;;;;;;;6.69;58.98;95881.44;4925039;29;20036;-76
2021/03/12 07:28:27;;;;;;;4.20;0.77;;;;;;;7.16;58.42;95888.38;4907247;29;20505;-76
2021/03/12 07:31:14;;;;;;;4.70;1.10;;;;;;;6.52;59.83;95884.81;4923430;29;20055;-76
2021/03/12 07:33:52;;;;;;;3.53;0.90;;;;;;;6.23;60.56;95898.75;4925580;29;20118;-76
2021/03/12 07:36:25;;;;;;;4.17;0.60;;;;;;;6.17;60.51;95898.50;4898491;29;20035;-76
2021/03/12 07:38:57;;;;;;;4.23;1.00;;;;;;;6.92;58.82;95887.13;4911649;29;20031;-76
2021/03/12 07:41:26;;;;;;;4.73;0.97;;;;;;;7.42;57.53;95888.50;4912581;29;20039;-76
2021/03/12 07:44:15;;;;;;;3.88;0.90;;;;;;;7.48;56.07;95901.81;4896026;29;20141;-76
2021/03/12 07:47:04;;;;;;;5.03;1.08;;;;;;;7.49;56.20;95894.78;4917499;29;20497;-75
2021/03/12 07:49:31;;;;;;;3.27;0.80;;;;;;;7.94;56.41;95893.84;4924751;29;20070;-76
2021/03/12 07:52:05;;;;;;;6.00;1.30;;;;;;;8.19;56.46;95906.19;4895426;29;20043;-75
2021/03/12 07:54:35;;;;;;;5.27;1.00;;;;;;;7.68;56.92;95905.09;4911423;29;20374;-76
2021/03/12 07:57:02;;;;;;;6.23;0.97;;;;;;;7.36;59.00;95895.13;4924747;29;20633;-75
2021/03/12 07:59:46;;;;;;;4.87;0.87;;;;;;;7.77;57.14;95896.34;4905964;29;20098;-76
2021/03/12 08:02:50;;;;;;;2.47;0.67;;;;;;;7.86;58.09;95884.16;4919651;29;20047;-77
2021/03/12 08:05:44;;;;;;;6.73;1.00;;;;;;;7.71;57.65;95891.72;4916871;29;20054;-77
2021/03/12 08:08:38;;;;;;;6.40;1.67;;;;;;;7.65;58.29;95894.94;4921444;29;20044;-77
2021/03/12 08:11:36;;;;;;;8.47;1.20;;;;;;;7.65;58.18;95907.19;4901389;29;20130;-76
2021/03/12 08:14:32;;;;;;;2.83;0.60;;;;;;;8.01;57.89;95911.44;4908356;29;20043;-77
2021/03/12 08:17:07;;;;;;;2.20;0.60;;;;;;;8.62;55.72;95904.53;4905178;29;20036;-76
2021/03/12 08:19:42;;;;;;;7.90;0.88;;;;;;;8.86;55.13;95897.78;4896473;29;20106;-76
2021/03/12 08:22:28;;;;;;;4.90;1.17;;;;;;;8.35;56.94;95910.72;4900451;29;20135;-76
2021/03/12 08:25:03;;;;;;;5.23;0.87;;;;;;;8.89;55.64;95897.47;4893316;29;20395;-76
2021/03/12 08:27:51;;;;;;;4.87;0.93;;;;;;;7.98;57.16;95913.53;4900567;29;20126;-76
2021/03/12 08:30:22;;;;;;;3.03;0.83;;;;;;;7.07;59.68;95910.97;4922253;29;20069;-76
2021/03/12 08:32:49;;;;;;;5.23;0.93;;;;;;;7.09;60.21;95906.44;4885501;29;20044;-76
2021/03/12 08:35:42;;;;;;;6.27;1.50;;;;;;;6.65;60.83;95916.66;4895320;29;20047;-76
2021/03/12 08:38:28;;;;;;;2.40;0.70;;;;;;;6.81;60.74;95908.22;4878440;29;20529;-76
2021/03/12 08:41:16;;;;;;;6.20;1.23;;;;;;;7.39;59.41;95907.09;4922595;29;20046;-76
2021/03/12 08:44:13;;;;;;;4.13;1.10;;;;;;;7.98;57.61;95909.13;4889695;29;20037;-75
2021/03/12 08:46:59;;;;;;;6.13;0.83;;;;;;;8.19;57.18;95906.19;4911302;29;20564;-76
2021/03/12 08:49:29;;;;;;;3.47;0.87;;;;;;;7.93;57.19;95916.59;4898690;29;20024;-76
2021/03/12 08:51:57;;;;;;;5.27;1.37;;;;;;;7.19;58.42;95914.22;4901456;29;20028;-76
2021/03/12 08:54:31;;;;;;;4.60;2.70;;;;;;;7.02;60.16;95927.09;4885254;29;20469;-76
2021/03/12 08:57:21;;;;;;;3.97;0.70;;;;;;;6.74;62.47;95928.88;4911264;29;20180;-75
2021/03/12 09:00:08;;;;;;;6.73;0.97;;;;;;;6.16;63.13;95918.56;4921375;29;20031;-75
2021/03/12 09:02:52;;;;;;;7.37;1.73;;;;;;;6.17;63.17;95933.28;4912661;29;20524;-76
2021/03/12 09:05:32;;;;;;;5.10;1.37;;;;;;;6.82;61.28;95928.97;4900133;29;20040;-76
2021/03/12 09:08:28;;;;;;;3.00;0.80;;;;;;;7.07;63.21;95932.72;4901241;29;20500;-76
2021/03/12 09:11:32;;;;;;;4.10;1.07;;;;;;;7.05;62.55;95923.38;4931585;29;20043;-76
2021/03/12 09:14:05;;;;;;;5.05;0.80;;;;;;;6.73;63.86;95939.47;4909491;29;20035;-76
2021/03/12 09:16:36;;;;;;;4.60;1.03;;;;;;;6.85;62.63;95930.50;4919519;29;20071;-76
2021/03/12 09:19:04;;;;;;;5.90;1.20;;;;;;;6.56;63.76;95928.78;4923063;29;20039;-76
2021/03/12 09:21:43;;;;;;;5.53;0.70;;;;;;;6.90;62.45;95932.66;4907891;29;20031;-76
2021/03/12 09:24:10;;;;;;;4.13;0.80;;;;;;;6.99;62.06;95937.84;4916856;29;20028;-76
2021/03/12 09:26:42;;;;;;;4.30;1.07;;;;;;;6.84;61.87;95934.91;4917691;29;20086;-76
2021/03/12 09:29:36;;;;;;;7.53;0.70;;;;;;;8.08;57.96;95923.91;4926084;29;20040;-76
2021/03/12 09:32:03;;;;;;;4.03;0.73;;;;;;;7.55;59.63;95925.59;4919723;29;20035;-76
2021/03/12 09:34:37;;;;;;;3.50;1.00;;;;;;;9.05;55.85;95912.44;4916487;29;20031;-76
2021/03/12 09:37:09;;;;;;;4.73;0.70;;;;;;;8.06;56.04;95918.84;4932125;29;20062;-76
2021/03/12 09:39:55;;;;;;;5.13;1.40;;;;;;;7.32;58.60;95923.38;4912789;29;20035;-76
2021/03/12 09:42:49;;;;;;;6.90;1.63;;;;;;;6.73;60.17;95916.75;4925927;29;20043;-76
2021/03/12 09:45:30;;;;;;;;;;;;;;;6.47;61.35;95926.19;4917936;29;20036;-76
2021/03/12 09:48:10;;;;;;;5.53;1.10;;;;;;;6.61;61.68;95926.59;4927122;29;19982;-76
2021/03/12 09:50:36;;;;;;;5.23;0.90;;;;;;;8.80;56.36;95908.88;4915075;29;20028;-76
2021/03/12 09:53:07;;;;;;;5.63;0.87;;;;;;;9.12;54.85;95898.56;4912144;29;20103;-76
2021/03/12 09:55:53;;;;;;;4.33;0.60;;;;;;;9.59;52.94;95890.16;4924384;29;20055;-76
2021/03/12 09:58:22;;;;;;;3.13;0.60;;;;;;;9.63;53.13;95893.28;4912721;29;20066;-76
2021/03/12 10:01:11;;;;;;;6.77;0.63;;;;;;;9.60;52.30;95890.97;4911488;29;20136;-76
2021/03/12 10:03:37;;;;;;;3.17;0.70;;;;;;;9.91;52.38;95884.09;4897762;29;20035;-76
2021/03/12 10:06:23;;;;;;;3.87;0.80;;;;;;;10.44;49.98;95878.53;4929801;29;20031;-76
2021/03/12 10:09:05;;;;;;;3.20;1.40;;;;;;;10.01;48.65;95869.97;4891049;29;20032;-78
2021/03/12 10:11:57;;;;;;;4.70;1.42;;;;;;;10.53;49.13;95854.69;4922871;29;20636;-77
2021/03/12 10:14:33;;;;;;;4.60;1.07;;;;;;;9.31;50.81;95870.38;4909182;29;20039;-78
2021/03/12 10:17:15;;;;;;;1.50;0.37;;;;;;;10.84;48.38;95853.94;4904111;29;20044;-77
2021/03/12 10:19:46;;;;;;;3.47;0.90;;;;;;;10.11;49.63;95857.50;4928837;29;20032;-77
2021/03/12 10:22:26;;;;;;;2.10;0.70;;;;;;;9.60;50.03;95849.78;4929326;29;20039;-77
2021/03/12 10:25:22;;;;;;;3.13;0.73;;;;;;;9.51;50.72;95863.06;4912842;29;20046;-78
2021/03/12 10:27:55;;;;;;;5.57;1.60;;;;;;;8.90;51.15;95852.72;4908487;29;20043;-77
2021/03/12 10:30:29;;;;;;;1.38;0.30;;;;;;;8.58;53.56;95856.00;4906944;29;20036;-77
2021/03/12 10:32:59;;;;;;;2.90;0.90;;;;;;;8.57;53.40;95859.59;4917015;29;20024;-77
2021/03/12 10:35:30;;;;;;;5.43;0.80;;;;;;;8.18;54.55;95862.63;4913274;29;20036;-77
2021/03/12 10:38:12;;;;;;;3.57;0.50;;;;;;;8.31;53.46;95854.34;4923291;29;20493;-77
2021/03/12 10:40:40;;;;;;;3.60;0.60;;;;;;;7.95;54.28;95858.88;4906566;29;20555;-77
2021/03/12 10:43:19;;;;;;;3.00;1.13;;;;;;;9.59;51.75;95837.66;4894993;29;20038;-76
2021/03/12 10:46:11;;;;;;;3.87;1.00;;;;;;;9.46;51.33;95837.31;4913273;29;20035;-78
2021/03/12 10:48:47;;;;;;;4.03;0.70;;;;;;;9.49;51.36;95833.50;4888467;29;20170;-78
2021/03/12 10:51:16;;;;;;;5.83;1.00;;;;;;;10.54;48.50;95814.25;4922370;29;20493;-77
2021/03/12 10:53:49;;;;;;;3.60;0.70;;;;;;;10.06;48.72;95812.50;4909823;29;20248;-77
2021/03/12 10:56:15;;;;;;;2.28;0.47;;;;;;;11.13;47.30;95802.47;4917868;29;20040;-78
2021/03/12 10:58:41;;;;;;;4.80;1.00;;;;;;;10.52;47.47;95797.81;4908656;29;20038;-77
2021/03/12 11:01:24;;;;;;;4.80;0.60;;;;;;;10.55;47.96;95801.91;4900159;29;20032;-79
2021/03/12 11:03:51;;;;;;;2.23;0.70;;;;;;;10.99;45.48;95801.41;4925913;29;20078;-77
2021/03/12 11:06:19;;;;;;;4.27;1.00;;;;;;;10.89;44.35;95801.63;4896531;29;20034;-79
2021/03/12 11:08:46;;;;;;;2.20;0.80;;;;;;;9.94;46.91;95795.47;4923203;29;20039;-79
2021/03/12 11:11:21;;;;;;;2.37;0.70;;;;;;;9.42;48.53;95800.06;4906885;29;20023;-77
2021/03/12 11:13:47;;;;;;;3.80;0.87;;;;;;;10.26;46.72;95786.72;4902882;29;20040;-77
2021/03/12 11:16:13;;;;;;;5.43;0.73;;;;;;;10.57;46.19;95794.69;4922758;29;20053;-78
2021/03/12 11:18:39;;;;;;;6.70;1.17;;;;;;;10.96;45.27;95789.41;4918712;29;20425;-77
2021/03/12 11:21:07;;;;;;;2.97;0.70;;;;;;;10.46;47.27;95788.00;4922570;29;20118;-76
2021/03/12 11:23:32;;;;;;;4.67;0.97;;;;;;;9.79;46.82;95801.38;4909464;29;20535;-79
2021/03/12 11:25:59;;;;;;;4.33;0.97;;;;;;;9.52;49.24;95797.25;4893624;29;20027;-78
2021/03/12 11:28:25;;;;;;;2.57;0.70;;;;;;;8.94;50.90;95806.00;4895097;29;20040;-77
2021/03/12 11:30:56;;;;;;;3.50;0.70;;;;;;;8.91;51.23;95811.56;4900221;29;20027;-77
2021/03/12 11:33:24;;;;;;;4.73;0.90;;;;;;;8.33;52.46;95815.72;4932016;29;20035;-77
2021/03/12 11:35:49;;;;;;;2.73;0.63;;;;;;;8.15;56.20;95823.66;4914149;29;20367;-77
2021/03/12 11:38:16;;;;;;;3.17;0.70;;;;;;;8.84;57.84;95818.44;4923996;29;20040;-77
2021/03/12 11:40:41;;;;;;;7.60;1.10;;;;;;;9.65;57.26;95805.47;4907316;29;20056;-77
2021/03/12 11:43:07;;;;;;;4.20;1.17;;;;;;;10.64;53.43;95806.16;4919829;29;20094;-77
2021/03/12 11:45:34;;;;;;;7.50;0.93;;;;;;;10.11;51.87;95800.50;4918990;29;20054;-77
2021/03/12 11:48:02;;;;;;;3.33;0.60;;;;;;;10.46;49.98;95798.50;4904825;29;20023;-78
2021/03/12 11:50:30;;;;;;;3.50;1.00;;;;;;;10.62;50.27;95797.63;4902451;29;20020;-77
2021/03/12 11:52:57;;;;;;;3.20;0.80;;;;;;;10.62;48.71;95792.34;4906775;29;20044;-77
2021/03/12 11:55:23;;;;;;;2.27;0.80;;;;;;;11.09;47.95;95794.94;4924064;29;20093;-81
2021/03/12 11:57:50;;;;;;;9.63;1.70;;;;;;;10.59;47.56;95793.50;4914235;29;20034;-79
2021/03/12 12:00:16;;;;;;;2.40;0.90;;;;;;;10.62;47.69;95798.44;4915834;29;20490;-77
2021/03/12 12:02:45;;;;;;;2.27;0.77;;;;;;;10.99;48.04;95785.63;4923702;29;20059;-78
2021/03/12 12:05:11;;;;;;;9.40;1.97;;;;;;;11.62;45.32;95775.84;4931128;29;20066;-77
2021/03/12 12:07:38;;;;;;;5.63;1.10;;;;;;;10.58;45.52;95784.00;4906785;29;20092;-78
2021/03/12 12:10:09;;;;;;;5.60;0.87;;;;;;;10.61;44.69;95783.66;4908873;29;20430;-78